Time;durP1;ratioP1;P1;durP2;ratioP2;P2;SDS_P1;SDS_P2;PMS_P1;PMS_P2;Temp;Humidity;BMP_temperature;BMP_pressure;BME280_temperature;BME280_humidity;BME280_pressure;Samples;Min_cycle;Max_cycle;Signal;HPM_P1;HPM_P2
2022/05/19 00:03:24;;;;;;;8.27;5.50;;;;;;;20.90;62.60;100695.66;5120058;28;20453;-63
2022/05/19 00:05:51;;;;;;;7.57;5.27;;;;;;;20.94;61.20;100701.53;5120841;28;20495;-63
2022/05/19 00:08:18;;;;;;;8.03;4.30;;;;;;;20.83;62.07;100697.47;5121161;28;20454;-62
2022/05/19 00:10:46;;;;;;;6.50;4.60;;;;;;;20.82;62.19;100693.09;5118534;28;20474;-64
2022/05/19 00:13:13;;;;;;;5.27;4.73;;;;;;;20.71;63.10;100685.47;5120929;28;20438;-62
2022/05/19 00:15:40;;;;;;;5.83;4.90;;;;;;;20.78;62.10;100695.38;5119167;28;20509;-62
2022/05/19 00:18:07;;;;;;;6.50;4.70;;;;;;;20.74;62.68;100690.50;5117165;28;20462;-62
2022/05/19 00:20:33;;;;;;;7.67;4.47;;;;;;;20.62;62.62;100696.50;5120303;28;20462;-61
2022/05/19 00:23:00;;;;;;;7.57;4.43;;;;;;;20.60;63.05;100689.53;5121351;28;20856;-62
2022/05/19 00:25:27;;;;;;;10.20;5.17;;;;;;;20.48;63.46;100698.22;5120734;28;20473;-62
2022/05/19 00:27:55;;;;;;;6.80;4.70;;;;;;;20.44;63.30;100690.66;5119898;28;20894;-64
2022/05/19 00:30:22;;;;;;;4.90;4.47;;;;;;;20.46;63.12;100685.84;5119873;28;20439;-64
2022/05/19 00:32:49;;;;;;;11.40;5.27;;;;;;;20.56;62.74;100689.06;5121307;28;20450;-64
2022/05/19 00:35:16;;;;;;;8.97;5.63;;;;;;;20.55;62.98;100676.53;5120006;28;20484;-64
2022/05/19 00:37:43;;;;;;;6.00;5.47;;;;;;;20.56;62.92;100675.50;5119230;28;20471;-64
2022/05/19 00:40:11;;;;;;;6.53;4.87;;;;;;;20.56;62.72;100675.50;5120201;27;20492;-64
2022/05/19 00:42:47;;;;;;;10.27;5.30;;;;;;;20.55;63.04;100675.69;5121702;28;20470;-64
2022/05/19 00:45:17;;;;;;;5.70;4.77;;;;;;;20.50;63.13;100684.41;5120415;28;20457;-65
2022/05/19 00:47:47;;;;;;;5.27;4.77;;;;;;;20.38;63.38;100673.25;5120797;28;20457;-64
2022/05/19 00:50:21;;;;;;;9.03;5.27;;;;;;;20.43;63.35;100678.94;5119520;28;20442;-65
2022/05/19 00:52:48;;;;;;;5.90;5.30;;;;;;;20.48;62.93;100678.34;5121470;28;20518;-65
2022/05/19 00:55:21;;;;;;;5.43;4.93;;;;;;;20.53;63.03;100681.31;5121668;28;20498;-66
2022/05/19 00:57:54;;;;;;;6.93;5.70;;;;;;;20.42;63.13;100674.53;5123526;28;20460;-65
2022/05/19 01:00:23;;;;;;;5.57;4.67;;;;;;;20.46;62.71;100672.28;5121148;28;20445;-64
2022/05/19 01:02:52;;;;;;;7.43;4.67;;;;;;;20.31;63.54;100678.63;5124965;28;20449;-65
2022/05/19 01:05:20;;;;;;;6.80;5.80;;;;;;;20.16;64.15;100683.28;5124455;28;20446;-65
2022/05/19 01:07:51;;;;;;;5.10;4.60;;;;;;;20.17;64.18;100682.22;5124309;28;20469;-64
2022/05/19 01:10:18;;;;;;;5.30;4.80;;;;;;;20.13;65.07;100680.94;5124810;28;20425;-65
2022/05/19 01:12:47;;;;;;;5.50;5.00;;;;;;;20.00;64.73;100680.78;5124278;28;20446;-65
2022/05/19 01:15:14;;;;;;;5.40;4.90;;;;;;;20.05;64.86;100681.03;5123809;28;21115;-64
2022/05/19 01:17:46;;;;;;;5.60;5.10;;;;;;;19.93;64.57;100676.13;5123086;28;20517;-64
2022/05/19 01:20:15;;;;;;;8.80;5.20;;;;;;;19.93;64.91;100669.88;5124832;28;20483;-64
2022/05/19 01:22:49;;;;;;;5.50;5.00;;;;;;;19.94;64.81;100672.38;5124554;28;20446;-64
2022/05/19 01:25:24;;;;;;;6.07;5.27;;;;;;;19.96;64.70;100663.22;5124410;28;20435;-64
2022/05/19 01:27:52;;;;;;;5.30;4.50;;;;;;;19.94;64.35;100669.66;5123194;28;20938;-64
2022/05/19 01:30:19;;;;;;;6.80;5.40;;;;;;;20.04;64.09;100658.50;5111588;28;20833;-64
2022/05/19 01:32:46;;;;;;;5.57;4.90;;;;;;;20.06;64.36;100666.47;5104618;28;20442;-64
2022/05/19 01:35:13;;;;;;;6.33;4.90;;;;;;;19.98;64.42;100658.44;5115033;28;20462;-64
2022/05/19 01:37:40;;;;;;;5.60;5.10;;;;;;;20.01;64.51;100650.75;5123550;28;20449;-64
2022/05/19 01:40:15;;;;;;;5.70;5.10;;;;;;;20.08;64.42;100645.38;5115321;28;20454;-65
2022/05/19 01:42:50;;;;;;;7.97;5.60;;;;;;;19.90;65.18;100649.38;5109267;28;20538;-65
2022/05/19 01:45:36;;;;;;;6.20;5.50;;;;;;;19.79;65.11;100649.03;5107975;28;20965;-65
2022/05/19 01:48:07;;;;;;;8.23;5.60;;;;;;;19.69;65.71;100639.31;5124538;28;20916;-65
2022/05/19 01:50:39;;;;;;;6.83;5.57;;;;;;;19.61;65.72;100652.97;5110532;28;20467;-65
2022/05/19 01:53:09;;;;;;;6.20;4.70;;;;;;;19.63;65.70;100637.34;5103085;28;20490;-65
2022/05/19 01:55:40;;;;;;;7.23;5.10;;;;;;;19.67;65.63;100637.81;5092485;28;20523;-65
2022/05/19 01:58:12;;;;;;;5.73;5.23;;;;;;;19.79;65.21;100640.91;5112738;28;20460;-65
2022/05/19 02:00:40;;;;;;;6.53;5.80;;;;;;;19.74;65.28;100641.50;5123672;28;20466;-65
2022/05/19 02:03:12;;;;;;;6.30;5.10;;;;;;;19.63;65.78;100623.78;5115551;28;20915;-65
2022/05/19 02:05:44;;;;;;;6.00;5.47;;;;;;;19.65;65.98;100631.72;5101542;28;20496;-65
2022/05/19 02:08:15;;;;;;;6.60;5.90;;;;;;;19.46;66.64;100625.03;5121900;28;20868;-65
2022/05/19 02:10:44;;;;;;;7.40;5.83;;;;;;;19.43;66.75;100622.72;5118849;28;20474;-65
2022/05/19 02:13:11;;;;;;;5.90;5.30;;;;;;;19.40;66.98;100625.81;5103645;28;20447;-64
2022/05/19 02:15:42;;;;;;;6.30;5.70;;;;;;;19.46;67.23;100625.91;5101625;28;20467;-64
2022/05/19 02:18:09;;;;;;;6.20;5.60;;;;;;;19.41;67.24;100636.47;5108333;28;20457;-64
2022/05/19 02:20:37;;;;;;;12.63;7.60;;;;;;;19.52;66.96;100633.25;5122958;28;21369;-64
2022/05/19 02:23:04;;;;;;;8.67;5.97;;;;;;;19.44;66.96;100633.34;5115146;28;20516;-64
2022/05/19 02:25:32;;;;;;;6.00;5.40;;;;;;;19.48;66.61;100642.81;5098397;28;20531;-64
2022/05/19 02:28:03;;;;;;;6.20;5.70;;;;;;;19.52;66.75;100638.69;5119294;28;20439;-64
2022/05/19 02:30:32;;;;;;;6.30;5.63;;;;;;;19.49;66.68;100632.78;5102615;28;20463;-64
2022/05/19 02:33:01;;;;;;;6.87;5.40;;;;;;;19.55;67.01;100626.63;5102910;28;20443;-64
2022/05/19 02:35:28;;;;;;;6.40;5.80;;;;;;;19.57;66.84;100622.69;5101535;28;20930;-65
2022/05/19 02:37:56;;;;;;;6.30;5.73;;;;;;;19.53;65.85;100621.41;5113930;28;20447;-65
2022/05/19 02:40:25;;;;;;;6.60;5.53;;;;;;;19.47;66.31;100616.72;5102362;28;20470;-65
2022/05/19 02:42:52;;;;;;;6.80;6.10;;;;;;;19.38;66.91;100626.81;5095980;28;20527;-65
2022/05/19 02:45:21;;;;;;;6.60;5.90;;;;;;;19.45;66.46;100617.94;5088966;28;20460;-65
2022/05/19 02:47:49;;;;;;;5.70;5.10;;;;;;;19.46;66.15;100622.31;5102992;28;20431;-65
2022/05/19 02:50:19;;;;;;;6.40;5.73;;;;;;;19.41;66.81;100622.91;5101054;28;20455;-65
2022/05/19 02:52:46;;;;;;;5.97;5.40;;;;;;;19.26;66.80;100614.78;5100501;28;20458;-64
2022/05/19 02:55:13;;;;;;;6.47;5.87;;;;;;;19.27;66.40;100619.19;5100598;28;20505;-65
2022/05/19 02:57:40;;;;;;;8.00;5.90;;;;;;;19.33;66.55;100620.31;5102334;28;20530;-65
2022/05/19 03:00:12;;;;;;;6.13;5.53;;;;;;;19.39;66.42;100614.13;5097112;28;20436;-65
2022/05/19 03:02:40;;;;;;;6.10;5.50;;;;;;;19.24;66.52;100607.88;5099269;28;20478;-66
2022/05/19 03:05:12;;;;;;;8.60;6.00;;;;;;;19.21;66.66;100608.25;5097466;28;20518;-65
2022/05/19 03:07:40;;;;;;;6.47;5.03;;;;;;;19.15;66.79;100618.00;5098769;28;21124;-65
2022/05/19 03:10:08;;;;;;;7.47;6.03;;;;;;;19.19;66.78;100620.13;5088658;28;20463;-65
2022/05/19 03:12:35;;;;;;;6.90;5.80;;;;;;;19.21;66.46;100621.81;5097850;28;20454;-65
2022/05/19 03:15:02;;;;;;;6.50;5.90;;;;;;;19.14;67.07;100619.00;5099387;28;20536;-65
2022/05/19 03:17:28;;;;;;;6.43;5.77;;;;;;;19.06;67.06;100619.97;5096798;28;20862;-66
2022/05/19 03:19:56;;;;;;;5.97;5.30;;;;;;;19.01;67.66;100619.69;5077080;28;20479;-65
2022/05/19 03:22:24;;;;;;;7.83;6.50;;;;;;;19.07;67.00;100615.38;5081656;28;20510;-65
2022/05/19 03:24:53;;;;;;;7.47;6.23;;;;;;;19.03;67.29;100619.50;5082289;28;20442;-65
2022/05/19 03:27:20;;;;;;;7.40;6.70;;;;;;;19.05;66.59;100618.25;5081239;28;20476;-66
2022/05/19 03:29:47;;;;;;;5.97;5.40;;;;;;;19.00;66.53;100612.56;5101648;28;20447;-65
2022/05/19 03:32:14;;;;;;;6.67;5.60;;;;;;;19.06;66.77;100613.69;5098456;28;20476;-65
2022/05/19 03:34:41;;;;;;;8.90;7.07;;;;;;;19.04;66.66;100616.56;5092403;28;20479;-65
2022/05/19 03:37:08;;;;;;;5.90;5.40;;;;;;;19.09;66.24;100622.28;5101021;28;20905;-65
2022/05/19 03:39:36;;;;;;;7.53;5.30;;;;;;;19.19;65.36;100616.56;5101934;28;20530;-65
2022/05/19 03:42:06;;;;;;;6.70;6.10;;;;;;;19.24;65.86;100607.88;5114022;28;20500;-65
2022/05/19 03:44:34;;;;;;;7.30;5.73;;;;;;;19.30;65.28;100612.53;5112212;28;20512;-65
2022/05/19 03:47:01;;;;;;;6.10;5.50;;;;;;;19.29;65.04;100617.13;5120021;28;20466;-65
2022/05/19 03:49:28;;;;;;;6.13;5.60;;;;;;;19.39;64.03;100614.13;5120856;28;20454;-65
2022/05/19 03:51:54;;;;;;;6.00;5.43;;;;;;;19.44;64.15;100608.13;5120590;27;21006;-64
2022/05/19 03:54:21;;;;;;;8.63;5.73;;;;;;;19.43;63.99;100604.59;5121594;28;20438;-65
2022/05/19 03:56:48;;;;;;;6.07;5.47;;;;;;;19.50;63.83;100610.91;5121390;28;20474;-64
2022/05/19 03:59:16;;;;;;;9.03;5.97;;;;;;;19.44;64.03;100608.94;5121472;28;20517;-64
2022/05/19 04:01:43;;;;;;;6.00;5.40;;;;;;;19.42;63.88;100619.16;5120996;28;20872;-64
2022/05/19 04:04:11;;;;;;;6.87;5.90;;;;;;;19.59;63.39;100618.94;5117216;28;20485;-64
2022/05/19 04:06:37;;;;;;;6.00;5.40;;;;;;;19.68;62.81;100617.78;5100158;28;20475;-64
2022/05/19 04:09:05;;;;;;;6.57;5.27;;;;;;;19.68;62.65;100615.91;5101550;28;20442;-63
2022/05/19 04:11:33;;;;;;;6.83;5.03;;;;;;;19.84;62.18;100614.88;5113612;27;20476;-63
2022/05/19 04:14:00;;;;;;;5.80;5.17;;;;;;;19.82;61.93;100619.66;5119942;28;20430;-63
2022/05/19 04:16:28;;;;;;;6.60;5.80;;;;;;;20.15;61.45;100618.31;5116437;28;20482;-63
2022/05/19 04:18:55;;;;;;;5.47;4.97;;;;;;;20.22;60.21;100625.47;5120927;28;20453;-63
2022/05/19 04:21:22;;;;;;;5.63;4.97;;;;;;;20.45;60.24;100629.84;5117210;28;20498;-63
2022/05/19 04:23:48;;;;;;;8.27;5.60;;;;;;;20.64;60.31;100631.06;5122148;28;20438;-63
2022/05/19 04:26:15;;;;;;;6.37;5.40;;;;;;;20.72;58.65;100632.81;5120054;28;20569;-63
2022/05/19 04:28:42;;;;;;;7.50;6.00;;;;;;;21.06;58.14;100637.44;5120546;28;20460;-63
2022/05/19 04:31:09;;;;;;;4.97;4.57;;;;;;;21.06;57.98;100640.16;5123218;27;20490;-64
2022/05/19 04:33:37;;;;;;;5.03;4.60;;;;;;;21.31;56.45;100631.50;5123646;27;20446;-61
2022/05/19 04:36:04;;;;;;;6.60;4.90;;;;;;;21.47;55.26;100638.50;5131432;27;20908;-65
2022/05/19 04:38:31;;;;;;;5.57;5.07;;;;;;;21.46;55.74;100634.94;5123033;27;20481;-62
2022/05/19 04:41:01;;;;;;;5.40;4.70;;;;;;;21.56;55.57;100638.13;5132598;27;20484;-62
2022/05/19 04:43:28;;;;;;;5.43;4.93;;;;;;;21.52;55.49;100638.72;5119884;27;20466;-63
2022/05/19 04:45:55;;;;;;;4.93;4.43;;;;;;;21.74;56.72;100636.72;5119471;27;20485;-63
2022/05/19 04:48:22;;;;;;;5.77;5.13;;;;;;;21.80;54.43;100635.88;5124240;27;20897;-62
2022/05/19 04:50:53;;;;;;;6.47;4.60;;;;;;;22.27;54.66;100646.88;5127954;27;20483;-62
2022/05/19 04:53:19;;;;;;;5.70;5.10;;;;;;;22.43;53.21;100642.91;5123905;27;20462;-62
2022/05/19 04:55:47;;;;;;;5.93;4.20;;;;;;;22.33;53.12;100637.91;5120209;28;20474;-62
2022/05/19 04:58:14;;;;;;;7.00;4.97;;;;;;;22.23;55.41;100653.78;5121892;28;20480;-62
2022/05/19 05:00:41;;;;;;;5.07;4.50;;;;;;;22.51;54.99;100654.44;5118642;28;20465;-62
2022/05/19 05:03:08;;;;;;;7.00;5.20;;;;;;;22.45;54.64;100649.03;5123445;28;20458;-62
2022/05/19 05:05:35;;;;;;;6.83;4.60;;;;;;;22.46;53.09;100648.78;5121511;28;20468;-62
2022/05/19 05:08:04;;;;;;;4.93;4.30;;;;;;;22.56;53.03;100640.19;5123305;28;20446;-62
2022/05/19 05:10:31;;;;;;;6.37;4.47;;;;;;;22.56;54.55;100649.22;5124464;28;20465;-61
2022/05/19 05:12:58;;;;;;;8.73;4.40;;;;;;;22.98;50.49;100653.56;5123852;28;20460;-62
2022/05/19 05:15:24;;;;;;;5.40;4.50;;;;;;;23.73;50.45;100645.81;5123799;28;21070;-66
2022/05/19 05:17:51;;;;;;;5.27;4.47;;;;;;;24.00;51.14;100651.13;5124583;28;20442;-60
2022/05/19 05:20:18;;;;;;;6.13;4.47;;;;;;;24.19;48.09;100643.88;5123145;28;20458;-60
2022/05/19 05:22:45;;;;;;;6.67;4.37;;;;;;;24.89;47.89;100653.81;5124351;28;20450;-61
2022/05/19 05:25:15;;;;;;;3.83;3.30;;;;;;;24.90;43.58;100655.50;5124162;28;20491;-60
2022/05/19 05:27:42;;;;;;;4.63;3.90;;;;;;;25.08;45.03;100657.41;5111084;28;20460;-60
2022/05/19 05:30:10;;;;;;;3.97;3.17;;;;;;;25.22;42.52;100656.19;5103554;28;20763;-61
2022/05/19 05:32:37;;;;;;;4.50;3.60;;;;;;;25.41;44.01;100657.06;5101279;28;20531;-62
2022/05/19 05:35:06;;;;;;;3.60;3.23;;;;;;;25.93;41.57;100651.94;5119079;27;20660;-60
2022/05/19 05:37:32;;;;;;;4.23;3.67;;;;;;;26.40;40.13;100653.19;5117943;28;20522;-61
2022/05/19 05:40:28;;;;;;;7.13;3.50;;;;;;;26.86;39.55;100648.84;5123676;27;20485;-61
2022/05/19 05:42:57;;;;;;;3.70;3.30;;;;;;;27.37;39.55;100652.75;5050973;28;20477;-60
2022/05/19 05:45:24;;;;;;;5.43;3.83;;;;;;;27.24;38.09;100642.03;5097740;28;20467;-60
2022/05/19 05:47:53;;;;;;;4.20;3.80;;;;;;;28.38;34.84;100645.88;5097263;28;20498;-61
2022/05/19 05:50:20;;;;;;;3.70;3.40;;;;;;;29.72;34.56;100654.13;5094652;28;20468;-61
2022/05/19 05:52:47;;;;;;;3.63;2.90;;;;;;;30.67;31.50;100650.91;5102328;28;20465;-61
2022/05/19 05:55:14;;;;;;;11.53;3.13;;;;;;;30.29;32.22;100644.50;5123656;28;20501;-61
2022/05/19 05:57:41;;;;;;;5.03;3.50;;;;;;;30.50;32.88;100644.72;5096069;28;20448;-61
2022/05/19 06:00:10;;;;;;;3.47;3.17;;;;;;;29.78;34.04;100641.28;5083167;28;20503;-61
2022/05/19 06:02:38;;;;;;;4.70;2.60;;;;;;;28.89;35.00;100640.38;5082997;28;20463;-61
2022/05/19 06:05:05;;;;;;;4.33;3.27;;;;;;;30.25;32.71;100646.13;5086726;28;20512;-61
2022/05/19 06:07:32;;;;;;;6.50;3.47;;;;;;;29.32;34.23;100644.28;5092152;28;20486;-61
2022/05/19 06:09:59;;;;;;;4.03;3.43;;;;;;;29.43;32.86;100642.50;5094157;28;20844;-62
2022/05/19 06:12:26;;;;;;;4.00;2.90;;;;;;;29.77;33.59;100640.44;5105533;28;20471;-61
2022/05/19 06:14:56;;;;;;;3.50;2.67;;;;;;;29.63;32.38;100651.00;5087322;28;20458;-61
2022/05/19 06:17:24;;;;;;;7.80;2.93;;;;;;;29.04;34.85;100634.25;5102215;28;20524;-61
2022/05/19 06:19:51;;;;;;;3.90;3.00;;;;;;;29.51;35.47;100636.50;5119839;28;20442;-62
2022/05/19 06:22:21;;;;;;;4.10;2.90;;;;;;;29.09;35.21;100631.56;5117510;28;20471;-61
2022/05/19 06:24:48;;;;;;;4.10;3.10;;;;;;;29.96;32.17;100626.28;5098614;28;20537;-62
2022/05/19 06:27:14;;;;;;;4.50;2.90;;;;;;;28.51;33.92;100622.72;5101684;28;20553;-62
2022/05/19 06:29:41;;;;;;;5.70;3.30;;;;;;;29.64;33.65;100625.09;5102695;28;20462;-62
2022/05/19 06:32:09;;;;;;;4.27;2.83;;;;;;;30.19;31.90;100623.22;5083338;28;20493;-62
2022/05/19 06:34:37;;;;;;;3.27;2.97;;;;;;;29.94;30.46;100628.47;5091173;28;20488;-60
2022/05/19 06:37:05;;;;;;;5.43;3.00;;;;;;;28.90;34.51;100620.88;5101921;28;20640;-61
2022/05/19 06:39:31;;;;;;;4.97;3.17;;;;;;;28.52;34.36;100624.34;5100897;28;20928;-61
2022/05/19 06:42:04;;;;;;;4.80;3.27;;;;;;;29.20;33.20;100614.13;5101253;28;20494;-61
2022/05/19 06:44:33;;;;;;;5.40;3.00;;;;;;;30.51;32.81;100614.09;5101837;28;20449;-61
2022/05/19 06:47:03;;;;;;;3.87;3.13;;;;;;;29.89;33.92;100611.88;5100289;28;20486;-61
2022/05/19 06:49:30;;;;;;;3.60;2.60;;;;;;;29.47;33.37;100607.84;5091037;28;20906;-61
2022/05/19 06:51:58;;;;;;;3.20;2.63;;;;;;;30.01;33.61;100602.34;5080948;28;20521;-61
2022/05/19 06:54:25;;;;;;;3.80;3.10;;;;;;;29.75;34.63;100609.50;5081813;28;20490;-61
2022/05/19 06:56:52;;;;;;;4.43;2.53;;;;;;;29.28;33.42;100607.31;5094256;28;21076;-62
2022/05/19 06:59:19;;;;;;;4.30;2.63;;;;;;;28.89;33.80;100605.44;5102329;28;20451;-61
2022/05/19 07:01:47;;;;;;;7.67;2.70;;;;;;;29.86;33.63;100604.97;5100866;28;20528;-61
2022/05/19 07:04:14;;;;;;;3.83;2.63;;;;;;;28.81;32.19;100600.34;5101080;28;20431;-61
2022/05/19 07:06:41;;;;;;;3.10;2.80;;;;;;;29.36;33.46;100609.63;5101044;28;20497;-61
2022/05/19 07:09:09;;;;;;;4.30;2.80;;;;;;;29.22;33.48;100609.19;5101459;28;20451;-61
2022/05/19 07:11:36;;;;;;;4.70;3.00;;;;;;;28.77;34.05;100601.13;5100321;28;20478;-61
2022/05/19 07:14:05;;;;;;;3.50;2.90;;;;;;;29.11;32.29;100608.22;5101413;28;20431;-62
2022/05/19 07:16:32;;;;;;;3.70;2.47;;;;;;;28.89;32.79;100605.44;5090255;28;20479;-61
2022/05/19 07:21:44;;;;;;;3.73;2.53;;;;;;;29.60;32.43;100601.06;5096971;28;20532;-61
2022/05/19 07:24:15;;;;;;;2.80;2.50;;;;;;;30.74;30.99;100593.53;5100727;28;20427;-61
2022/05/19 07:26:42;;;;;;;3.60;2.43;;;;;;;31.39;29.43;100604.38;5101232;28;20505;-62
2022/05/19 07:29:09;;;;;;;2.80;2.40;;;;;;;31.81;28.43;100603.41;5101418;28;20479;-61
2022/05/19 07:31:36;;;;;;;2.90;2.30;;;;;;;32.18;26.15;100601.53;5100155;28;20502;-62
2022/05/19 07:34:04;;;;;;;4.70;2.50;;;;;;;32.27;27.08;100600.72;5101589;28;20451;-62
2022/05/19 07:36:31;;;;;;;2.70;2.50;;;;;;;31.44;27.00;100604.41;5100087;28;20493;-61
2022/05/19 07:38:59;;;;;;;3.83;2.60;;;;;;;31.94;26.84;100615.03;5100792;28;20581;-61
2022/05/19 07:41:28;;;;;;;2.20;1.93;;;;;;;32.22;25.59;100622.00;5116464;27;20491;-62
2022/05/19 07:43:55;;;;;;;4.23;2.60;;;;;;;33.41;24.37;100623.44;5142099;27;20883;-62
2022/05/19 07:46:22;;;;;;;2.20;1.90;;;;;;;32.59;24.88;100605.09;5137296;27;21124;-62
2022/05/19 07:48:50;;;;;;;4.90;2.47;;;;;;;32.69;26.14;100608.97;5111206;27;20447;-63
2022/05/19 07:51:16;;;;;;;2.40;2.17;;;;;;;30.77;27.05;100604.06;5141170;27;20484;-63
2022/05/19 07:53:43;;;;;;;3.80;2.27;;;;;;;31.81;26.29;100613.66;5142298;27;20544;-62
2022/05/19 07:56:10;;;;;;;3.23;2.20;;;;;;;33.41;24.50;100615.13;5142086;27;20477;-62
2022/05/19 07:58:38;;;;;;;2.53;2.03;;;;;;;32.55;25.62;100625.31;5142526;27;20453;-62
2022/05/19 08:01:05;;;;;;;5.30;2.47;;;;;;;34.12;22.66;100624.16;5136910;27;20503;-63
2022/05/19 08:03:32;;;;;;;3.20;2.27;;;;;;;32.15;25.73;100618.69;5100166;28;20453;-62
2022/05/19 08:05:59;;;;;;;3.10;2.40;;;;;;;30.18;28.04;100615.19;5100947;28;20455;-61
2022/05/19 08:08:26;;;;;;;3.60;2.43;;;;;;;29.41;29.40;100634.50;5101418;28;20450;-61
2022/05/19 08:10:54;;;;;;;2.80;2.50;;;;;;;30.16;28.84;100623.72;5102064;27;21061;-61
2022/05/19 08:16:07;;;;;;;6.40;2.70;;;;;;;28.92;29.81;100626.94;5132681;27;21196;-61
2022/05/19 08:18:34;;;;;;;3.40;2.60;;;;;;;29.44;29.38;100628.47;5132710;27;20455;-61
2022/05/19 08:21:03;;;;;;;4.30;2.37;;;;;;;30.89;26.62;100633.41;5100149;28;20470;-60
2022/05/19 08:23:36;;;;;;;4.90;2.43;;;;;;;31.57;25.65;100625.19;5115066;28;20450;-61
2022/05/19 08:26:05;;;;;;;3.07;2.33;;;;;;;32.00;25.67;100625.03;5120914;28;20848;-61
2022/05/19 08:28:34;;;;;;;3.10;2.33;;;;;;;32.11;26.96;100615.63;5121253;28;20462;-62
2022/05/19 08:31:03;;;;;;;4.30;2.27;;;;;;;30.98;26.45;100606.97;5120321;28;21013;-62
2022/05/19 08:33:33;;;;;;;5.17;2.40;;;;;;;29.28;29.39;100613.66;5110747;28;20837;-61
2022/05/19 08:36:00;;;;;;;2.77;2.30;;;;;;;29.16;28.98;100612.13;5115149;28;21068;-61
2022/05/19 08:38:27;;;;;;;5.73;2.47;;;;;;;29.16;29.69;100603.88;5120317;28;20457;-61
2022/05/19 08:40:56;;;;;;;6.00;2.40;;;;;;;28.73;30.20;100609.03;5140546;28;20518;-61
2022/05/19 08:43:27;;;;;;;2.33;2.13;;;;;;;28.96;30.26;100597.00;5142160;28;20449;-60
2022/05/19 08:45:55;;;;;;;6.07;2.80;;;;;;;29.38;29.60;100604.69;5140351;28;20457;-60
2022/05/19 08:48:24;;;;;;;5.40;2.80;;;;;;;29.36;29.73;100603.31;5118656;28;20446;-60
2022/05/19 08:50:55;;;;;;;3.30;2.10;;;;;;;29.06;29.43;100601.78;5120048;28;20470;-61
2022/05/19 08:53:24;;;;;;;4.37;2.67;;;;;;;29.39;29.47;100594.50;5120696;28;20454;-60
2022/05/19 08:55:54;;;;;;;3.33;2.60;;;;;;;29.65;30.10;100593.72;5112564;28;20504;-60
2022/05/19 08:58:37;;;;;;;3.80;2.80;;;;;;;29.52;30.42;100591.34;5101034;28;20483;-60
2022/05/19 09:01:09;;;;;;;3.57;2.27;;;;;;;29.47;30.21;100597.63;5099574;28;20467;-61
2022/05/19 09:03:38;;;;;;;3.63;2.67;;;;;;;29.59;29.36;100602.19;5109084;28;20477;-60
2022/05/19 09:06:27;;;;;;;5.13;2.20;;;;;;;30.37;28.61;100588.91;5119050;28;20477;-61
2022/05/19 09:09:09;;;;;;;5.20;2.53;;;;;;;31.01;28.20;100594.56;5120410;28;20477;-60
2022/05/19 09:11:44;;;;;;;4.97;2.73;;;;;;;30.43;28.52;100603.56;5120293;28;20653;-61
2022/05/19 09:14:20;;;;;;;4.40;3.20;;;;;;;30.49;29.42;100591.47;5134906;28;20421;-61
2022/05/19 09:16:48;;;;;;;6.50;2.63;;;;;;;31.26;27.85;100589.13;5121204;28;20469;-61
2022/05/19 09:19:18;;;;;;;9.80;2.50;;;;;;;32.74;25.70;100584.06;5124814;28;20479;-61
2022/05/19 09:21:52;;;;;;;4.27;2.77;;;;;;;32.53;28.04;100575.75;5113657;27;20474;-61
2022/05/19 09:24:19;;;;;;;4.57;2.20;;;;;;;32.16;25.52;100568.63;5124448;27;21005;-61
2022/05/19 09:26:52;;;;;;;4.20;2.17;;;;;;;31.87;27.26;100566.38;5124159;27;20540;-60
2022/05/19 09:29:22;;;;;;;3.20;2.33;;;;;;;31.23;26.94;100570.38;5123483;28;20989;-61
2022/05/19 09:31:52;;;;;;;3.57;2.67;;;;;;;30.42;28.89;100569.63;5123707;28;20571;-62
2022/05/19 09:34:23;;;;;;;3.50;2.30;;;;;;;30.54;28.99;100572.19;5124957;28;20442;-61
2022/05/19 09:37:01;;;;;;;6.63;3.10;;;;;;;30.07;29.15;100567.41;5114579;28;20478;-60
2022/05/19 09:39:33;;;;;;;3.80;2.97;;;;;;;30.58;28.09;100565.03;5111037;28;20453;-61
2022/05/19 09:42:05;;;;;;;3.43;2.40;;;;;;;32.04;26.12;100552.25;5143935;27;20507;-62
2022/05/19 09:44:34;;;;;;;7.67;2.90;;;;;;;32.24;25.83;100547.88;5144093;27;20469;-61
2022/05/19 09:47:08;;;;;;;7.00;2.30;;;;;;;32.92;25.21;100543.84;5130713;27;20472;-61
2022/05/19 09:49:44;;;;;;;3.47;2.20;;;;;;;33.36;25.07;100543.09;5119973;28;20508;-61
2022/05/19 09:52:23;;;;;;;2.83;1.93;;;;;;;32.96;24.93;100531.09;5126964;27;20504;-62
2022/05/19 09:54:55;;;;;;;4.40;2.57;;;;;;;33.06;25.04;100527.47;5145084;27;20434;-61
2022/05/19 09:57:26;;;;;;;2.30;2.07;;;;;;;34.51;24.13;100526.09;5143780;27;20588;-61
2022/05/19 09:59:54;;;;;;;3.73;2.50;;;;;;;34.03;24.28;100526.84;5129761;27;20519;-62
2022/05/19 10:02:30;;;;;;;3.97;2.50;;;;;;;33.38;24.65;100522.31;5103063;28;20583;-61
2022/05/19 10:04:59;;;;;;;4.20;2.40;;;;;;;33.55;24.94;100523.84;5112481;28;20442;-61
2022/05/19 10:07:28;;;;;;;3.30;2.40;;;;;;;33.05;24.53;100517.47;5121859;28;20474;-61
2022/05/19 10:09:57;;;;;;;4.03;2.30;;;;;;;32.51;26.06;100514.31;5122863;28;20456;-62
2022/05/19 10:12:28;;;;;;;5.13;2.60;;;;;;;32.50;25.78;100514.59;5123582;28;20482;-62
2022/05/19 10:15:00;;;;;;;2.33;2.10;;;;;;;32.07;27.47;100510.25;5122896;28;20454;-61
2022/05/19 10:17:35;;;;;;;4.10;2.63;;;;;;;32.54;26.49;100507.41;5122717;28;20481;-62
2022/05/19 10:20:09;;;;;;;4.77;3.07;;;;;;;32.60;27.23;100504.38;5123011;28;20473;-61
2022/05/19 10:22:50;;;;;;;2.53;2.30;;;;;;;32.38;26.67;100509.41;5121494;28;21033;-62
2022/05/19 10:25:35;;;;;;;5.27;2.27;;;;;;;31.46;27.77;100496.38;5122877;27;20435;-61
2022/05/19 10:31:04;;;;;;;2.47;2.27;;;;;;;32.92;26.00;100503.13;5142254;27;20480;-61
2022/05/19 10:33:40;;;;;;;4.40;2.87;;;;;;;33.95;25.60;100494.16;5131533;27;20450;-62
2022/05/19 10:36:16;;;;;;;4.27;2.80;;;;;;;33.41;24.94;100493.19;5121565;28;20481;-61
2022/05/19 10:38:57;;;;;;;2.67;2.40;;;;;;;31.93;26.86;100492.56;5112642;28;20443;-62
2022/05/19 10:41:37;;;;;;;2.80;2.50;;;;;;;32.49;26.24;100499.94;5134586;27;20549;-61
2022/05/19 10:44:38;;;;;;;3.63;2.27;;;;;;;32.53;26.61;100497.44;5122140;28;20958;-62
2022/05/19 10:47:12;;;;;;;3.80;2.30;;;;;;;32.57;27.06;100495.75;5113580;28;20469;-62
2022/05/19 10:50:00;;;;;;;4.10;2.60;;;;;;;32.50;27.22;100481.38;5115722;28;20440;-62
2022/05/19 10:52:36;;;;;;;5.23;2.50;;;;;;;32.78;27.09;100482.72;5100349;28;20486;-62
2022/05/19 10:55:17;;;;;;;3.70;2.23;;;;;;;32.62;25.92;100482.78;5102980;28;20530;-62
2022/05/19 10:58:04;;;;;;;6.13;2.50;;;;;;;32.56;25.82;100470.03;5102247;28;20500;-61
2022/05/19 11:00:42;;;;;;;3.60;2.83;;;;;;;32.34;26.46;100473.13;5100937;28;20469;-61
2022/05/19 11:03:33;;;;;;;2.97;2.43;;;;;;;31.89;26.24;100459.09;5119051;27;20460;-61
2022/05/19 11:06:08;;;;;;;6.50;2.17;;;;;;;32.68;25.36;100463.38;5119221;28;20527;-61
2022/05/19 11:08:47;;;;;;;3.83;2.20;;;;;;;33.05;24.77;100456.53;5114145;27;20520;-61
2022/05/19 11:11:19;;;;;;;2.90;2.47;;;;;;;32.41;25.99;100446.00;5112236;28;20512;-61
2022/05/19 11:13:58;;;;;;;3.43;2.40;;;;;;;33.29;25.36;100440.06;5118022;28;21139;-61
2022/05/19 11:16:33;;;;;;;2.70;2.50;;;;;;;32.78;25.04;100439.25;5120865;28;20477;-62
2022/05/19 11:19:06;;;;;;;2.47;2.27;;;;;;;32.69;25.86;100434.56;5112866;28;20451;-61
2022/05/19 11:21:37;;;;;;;4.27;2.20;;;;;;;32.89;25.47;100417.03;5100247;28;20470;-61
2022/05/19 11:24:07;;;;;;;3.10;2.30;;;;;;;33.31;25.88;100413.72;5101630;28;20455;-62
2022/05/19 11:26:38;;;;;;;2.77;1.97;;;;;;;32.44;25.78;100409.44;5101239;28;20478;-61
2022/05/19 11:29:14;;;;;;;5.20;2.70;;;;;;;32.99;26.28;100398.41;5100777;28;20449;-61
2022/05/19 11:31:45;;;;;;;4.13;2.47;;;;;;;33.34;25.55;100395.69;5105728;28;20482;-62
2022/05/19 11:34:19;;;;;;;2.50;2.20;;;;;;;33.40;24.73;100388.97;5102170;28;20477;-62
2022/05/19 11:36:52;;;;;;;6.97;2.77;;;;;;;33.74;24.41;100388.16;5100032;28;20507;-61
2022/05/19 11:39:23;;;;;;;3.43;2.20;;;;;;;33.22;25.17;100402.41;5100333;28;20459;-61
2022/05/19 11:41:53;;;;;;;4.13;2.20;;;;;;;33.52;25.20;100397.75;5111793;28;20489;-61
2022/05/19 11:44:24;;;;;;;2.53;2.10;;;;;;;32.53;26.10;100395.84;5111673;27;20461;-61
2022/05/19 11:46:58;;;;;;;3.23;2.00;;;;;;;32.49;25.84;100389.25;5101471;28;20532;-61